sensor_id;sensor_type;location;lat;lon;timestamp;pressure;altitude;pressure_sealevel;temperature;humidity
71344;BME280;59146;43.850;25.948;2022-07-04T00:00:01;101076.19;;;25.04;34.31
71344;BME280;59146;43.850;25.948;2022-07-04T00:02:27;101099.03;;;25.15;34.24
71344;BME280;59146;43.850;25.948;2022-07-04T00:04:52;101123.22;;;25.30;35.61
71344;BME280;59146;43.850;25.948;2022-07-04T00:07:17;101084.84;;;25.14;38.52
71344;BME280;59146;43.850;25.948;2022-07-04T00:09:43;101106.03;;;25.16;39.12
71344;BME280;59146;43.850;25.948;2022-07-04T00:12:08;101110.91;;;25.12;38.66
71344;BME280;59146;43.850;25.948;2022-07-04T00:14:34;101110.75;;;25.06;38.67
71344;BME280;59146;43.850;25.948;2022-07-04T00:16:59;101119.28;;;25.01;38.18
71344;BME280;59146;43.850;25.948;2022-07-04T00:19:25;101121.16;;;25.01;37.26
71344;BME280;59146;43.850;25.948;2022-07-04T00:21:50;101125.13;;;25.05;37.51
71344;BME280;59146;43.850;25.948;2022-07-04T00:24:16;101073.25;;;24.75;37.90
71344;BME280;59146;43.850;25.948;2022-07-04T00:26:42;101074.72;;;24.70;37.95
71344;BME280;59146;43.850;25.948;2022-07-04T00:29:07;101122.16;;;24.92;38.37
71344;BME280;59146;43.850;25.948;2022-07-04T00:31:33;101065.91;;;24.53;39.02
71344;BME280;59146;43.850;25.948;2022-07-04T00:33:59;101087.75;;;24.89;36.54
71344;BME280;59146;43.850;25.948;2022-07-04T00:36:24;101086.94;;;24.80;35.56
71344;BME280;59146;43.850;25.948;2022-07-04T00:38:50;101101.09;;;24.97;36.29
71344;BME280;59146;43.850;25.948;2022-07-04T00:41:15;101093.25;;;24.95;36.03
71344;BME280;59146;43.850;25.948;2022-07-04T00:43:40;101074.38;;;24.89;35.91
71344;BME280;59146;43.850;25.948;2022-07-04T00:46:06;101092.25;;;24.96;38.00
71344;BME280;59146;43.850;25.948;2022-07-04T00:48:32;101077.41;;;24.70;38.13
71344;BME280;59146;43.850;25.948;2022-07-04T00:50:58;101118.81;;;24.98;38.64
71344;BME280;59146;43.850;25.948;2022-07-04T00:53:23;101144.69;;;24.97;37.09
71344;BME280;59146;43.850;25.948;2022-07-04T00:55:50;101094.25;;;24.70;37.50
71344;BME280;59146;43.850;25.948;2022-07-04T00:58:19;101076.75;;;24.60;37.58
71344;BME280;59146;43.850;25.948;2022-07-04T01:00:45;101129.16;;;24.85;37.33
71344;BME280;59146;43.850;25.948;2022-07-04T01:03:10;101110.31;;;24.86;36.63
71344;BME280;59146;43.850;25.948;2022-07-04T01:05:36;101127.81;;;24.97;35.79
71344;BME280;59146;43.850;25.948;2022-07-04T01:08:03;101073.09;;;24.53;35.29
71344;BME280;59146;43.850;25.948;2022-07-04T01:10:29;101094.78;;;24.58;35.46
71344;BME280;59146;43.850;25.948;2022-07-04T01:12:54;101112.31;;;24.68;35.34
71344;BME280;59146;43.850;25.948;2022-07-04T01:15:20;101123.81;;;24.85;37.02
71344;BME280;59146;43.850;25.948;2022-07-04T01:17:45;101102.97;;;24.56;41.57
71344;BME280;59146;43.850;25.948;2022-07-04T01:20:12;101051.09;;;24.18;40.85
71344;BME280;59146;43.850;25.948;2022-07-04T01:22:38;101067.47;;;24.23;40.49
71344;BME280;59146;43.850;25.948;2022-07-04T01:25:04;101113.31;;;24.59;41.70
71344;BME280;59146;43.850;25.948;2022-07-04T01:27:29;101076.78;;;24.43;41.93
71344;BME280;59146;43.850;25.948;2022-07-04T01:29:55;101070.13;;;24.23;43.31
71344;BME280;59146;43.850;25.948;2022-07-04T01:32:20;101081.78;;;24.14;44.46
71344;BME280;59146;43.850;25.948;2022-07-04T01:34:46;101132.50;;;24.22;44.59
71344;BME280;59146;43.850;25.948;2022-07-04T01:37:11;101130.81;;;24.21;44.58
71344;BME280;59146;43.850;25.948;2022-07-04T01:39:37;101085.19;;;23.75;44.69
71344;BME280;59146;43.850;25.948;2022-07-04T01:42:02;101071.50;;;23.69;43.59
71344;BME280;59146;43.850;25.948;2022-07-04T01:44:28;101114.38;;;23.76;43.92
71344;BME280;59146;43.850;25.948;2022-07-04T01:46:53;101040.59;;;23.35;41.69
71344;BME280;59146;43.850;25.948;2022-07-04T01:49:19;101087.66;;;23.60;41.11
71344;BME280;59146;43.850;25.948;2022-07-04T01:51:49;101136.41;;;23.86;39.97
71344;BME280;59146;43.850;25.948;2022-07-04T01:54:15;101103.66;;;23.60;40.43
71344;BME280;59146;43.850;25.948;2022-07-04T01:56:41;101114.84;;;23.72;41.06
71344;BME280;59146;43.850;25.948;2022-07-04T01:59:07;101133.72;;;23.78;41.24
71344;BME280;59146;43.850;25.948;2022-07-04T02:01:33;101115.66;;;23.56;41.51
71344;BME280;59146;43.850;25.948;2022-07-04T02:04:01;101138.50;;;23.58;41.55
71344;BME280;59146;43.850;25.948;2022-07-04T02:06:28;101095.34;;;23.29;41.71
71344;BME280;59146;43.850;25.948;2022-07-04T02:08:54;101081.63;;;23.16;42.01
71344;BME280;59146;43.850;25.948;2022-07-04T02:11:38;101138.66;;;23.31;41.86
71344;BME280;59146;43.850;25.948;2022-07-04T02:14:22;101101.28;;;22.89;42.25
71344;BME280;59146;43.850;25.948;2022-07-04T02:16:48;101050.56;;;22.48;42.78
71344;BME280;59146;43.850;25.948;2022-07-04T02:19:13;101115.25;;;22.83;42.27
71344;BME280;59146;43.850;25.948;2022-07-04T02:21:39;101092.63;;;22.87;42.04
71344;BME280;59146;43.850;25.948;2022-07-04T02:24:05;101040.13;;;22.54;42.30
71344;BME280;59146;43.850;25.948;2022-07-04T02:26:30;101144.28;;;23.20;41.85
71344;BME280;59146;43.850;25.948;2022-07-04T02:28:56;101101.84;;;22.93;42.00
71344;BME280;59146;43.850;25.948;2022-07-04T02:31:22;101103.91;;;22.81;42.59
71344;BME280;59146;43.850;25.948;2022-07-04T02:33:47;101127.56;;;22.84;42.71
71344;BME280;59146;43.850;25.948;2022-07-04T02:36:13;101142.25;;;23.14;41.84
71344;BME280;59146;43.850;25.948;2022-07-04T02:38:38;101108.94;;;22.84;42.88
71344;BME280;59146;43.850;25.948;2022-07-04T02:41:04;101055.00;;;22.39;42.28
71344;BME280;59146;43.850;25.948;2022-07-04T02:43:29;101147.56;;;22.88;42.13
71344;BME280;59146;43.850;25.948;2022-07-04T02:45:54;101107.31;;;22.66;41.79
71344;BME280;59146;43.850;25.948;2022-07-04T02:48:20;101102.72;;;22.76;41.44
71344;BME280;59146;43.850;25.948;2022-07-04T02:50:45;101114.56;;;22.81;41.94
71344;BME280;59146;43.850;25.948;2022-07-04T02:53:11;101145.69;;;23.07;41.64
71344;BME280;59146;43.850;25.948;2022-07-04T02:55:36;101143.03;;;23.07;41.48
71344;BME280;59146;43.850;25.948;2022-07-04T02:58:02;101167.00;;;23.07;41.49
71344;BME280;59146;43.850;25.948;2022-07-04T03:00:27;101166.13;;;23.24;41.25
71344;BME280;59146;43.850;25.948;2022-07-04T03:02:56;101105.84;;;22.97;41.34
71344;BME280;59146;43.850;25.948;2022-07-04T03:05:21;101099.00;;;22.95;41.86
71344;BME280;59146;43.850;25.948;2022-07-04T03:07:47;101142.97;;;23.24;41.62
71344;BME280;59146;43.850;25.948;2022-07-04T03:10:12;101148.13;;;23.26;41.59
71344;BME280;59146;43.850;25.948;2022-07-04T03:12:38;101138.94;;;23.46;40.42
71344;BME280;59146;43.850;25.948;2022-07-04T03:15:04;101104.44;;;23.44;39.53
71344;BME280;59146;43.850;25.948;2022-07-04T03:17:29;101130.06;;;23.79;39.67
71344;BME280;59146;43.850;25.948;2022-07-04T03:19:58;101100.34;;;23.58;39.81
71344;BME280;59146;43.850;25.948;2022-07-04T03:22:23;101141.72;;;23.86;39.97
71344;BME280;59146;43.850;25.948;2022-07-04T03:24:49;101148.28;;;24.00;40.49
71344;BME280;59146;43.850;25.948;2022-07-04T03:27:14;101147.19;;;24.67;39.66
71344;BME280;59146;43.850;25.948;2022-07-04T03:29:40;101118.75;;;25.61;37.42
71344;BME280;59146;43.850;25.948;2022-07-04T03:32:06;101161.84;;;26.95;34.46
71344;BME280;59146;43.850;25.948;2022-07-04T03:34:31;101154.81;;;27.67;32.77
71344;BME280;59146;43.850;25.948;2022-07-04T03:36:57;101085.03;;;27.31;32.88
71344;BME280;59146;43.850;25.948;2022-07-04T03:39:22;101113.69;;;27.31;32.86
71344;BME280;59146;43.850;25.948;2022-07-04T03:41:48;101165.91;;;26.91;34.10
71344;BME280;59146;43.850;25.948;2022-07-04T03:44:13;101154.81;;;26.34;35.80
71344;BME280;59146;43.850;25.948;2022-07-04T03:46:39;101147.63;;;26.35;35.70
71344;BME280;59146;43.850;25.948;2022-07-04T03:49:04;101119.75;;;25.60;37.14
71344;BME280;59146;43.850;25.948;2022-07-04T03:51:30;101089.50;;;25.20;37.30
71344;BME280;59146;43.850;25.948;2022-07-04T03:53:56;101163.44;;;26.22;36.79
71344;BME280;59146;43.850;25.948;2022-07-04T03:56:21;101107.94;;;27.48;34.93
71344;BME280;59146;43.850;25.948;2022-07-04T03:58:47;101162.81;;;28.32;34.38
71344;BME280;59146;43.850;25.948;2022-07-04T04:01:17;101160.22;;;28.87;33.42
71344;BME280;59146;43.850;25.948;2022-07-04T04:03:44;101148.66;;;29.49;31.62
71344;BME280;59146;43.850;25.948;2022-07-04T04:06:28;101150.63;;;30.35;30.13
71344;BME280;59146;43.850;25.948;2022-07-04T04:08:54;101145.88;;;30.76;29.59
71344;BME280;59146;43.850;25.948;2022-07-04T04:11:19;101105.81;;;30.73;29.03
71344;BME280;59146;43.850;25.948;2022-07-04T04:13:44;101118.25;;;31.07;28.70
71344;BME280;59146;43.850;25.948;2022-07-04T04:16:10;101165.31;;;31.24;29.29
71344;BME280;59146;43.850;25.948;2022-07-04T04:18:35;101113.06;;;30.99;29.43
71344;BME280;59146;43.850;25.948;2022-07-04T04:21:02;101151.59;;;31.45;28.97
71344;BME280;59146;43.850;25.948;2022-07-04T04:23:28;101125.94;;;30.97;29.88
71344;BME280;59146;43.850;25.948;2022-07-04T04:25:53;101159.00;;;31.63;29.02
71344;BME280;59146;43.850;25.948;2022-07-04T04:28:19;101169.84;;;31.56;28.61
71344;BME280;59146;43.850;25.948;2022-07-04T04:30:44;101172.91;;;31.66;28.08
71344;BME280;59146;43.850;25.948;2022-07-04T04:33:10;101179.13;;;31.73;28.06
71344;BME280;59146;43.850;25.948;2022-07-04T04:35:35;101165.03;;;31.65;27.81
71344;BME280;59146;43.850;25.948;2022-07-04T04:38:00;101117.00;;;31.73;28.61
71344;BME280;59146;43.850;25.948;2022-07-04T04:40:26;101172.69;;;32.74;28.72
71344;BME280;59146;43.850;25.948;2022-07-04T04:42:51;101195.00;;;33.37;26.15
71344;BME280;59146;43.850;25.948;2022-07-04T04:45:17;101173.94;;;33.21;27.13
71344;BME280;59146;43.850;25.948;2022-07-04T04:47:42;101075.59;;;32.42;27.77
71344;BME280;59146;43.850;25.948;2022-07-04T04:50:09;101157.41;;;33.11;27.74
71344;BME280;59146;43.850;25.948;2022-07-04T04:52:40;101140.50;;;34.00;26.74
71344;BME280;59146;43.850;25.948;2022-07-04T04:55:06;101155.34;;;33.49;27.58
71344;BME280;59146;43.850;25.948;2022-07-04T04:57:31;101141.97;;;33.48;27.76
71344;BME280;59146;43.850;25.948;2022-07-04T04:59:56;101144.91;;;32.85;28.77
71344;BME280;59146;43.850;25.948;2022-07-04T05:02:22;101147.19;;;32.01;30.88
71344;BME280;59146;43.850;25.948;2022-07-04T05:04:47;101150.84;;;32.13;31.28
71344;BME280;59146;43.850;25.948;2022-07-04T05:07:13;101163.91;;;31.79;30.74
71344;BME280;59146;43.850;25.948;2022-07-04T05:09:38;101144.22;;;32.41;27.47
71344;BME280;59146;43.850;25.948;2022-07-04T05:12:04;101155.66;;;32.43;27.22
71344;BME280;59146;43.850;25.948;2022-07-04T05:14:30;101146.53;;;32.37;27.02
71344;BME280;59146;43.850;25.948;2022-07-04T05:16:55;101186.88;;;32.70;26.08
71344;BME280;59146;43.850;25.948;2022-07-04T05:19:21;101185.38;;;33.78;24.79
71344;BME280;59146;43.850;25.948;2022-07-04T05:21:47;101168.94;;;33.61;24.87
71344;BME280;59146;43.850;25.948;2022-07-04T05:24:12;101168.41;;;32.67;26.80
71344;BME280;59146;43.850;25.948;2022-07-04T05:26:38;101194.94;;;32.52;27.24
71344;BME280;59146;43.850;25.948;2022-07-04T05:29:03;101136.31;;;32.15;29.17
71344;BME280;59146;43.850;25.948;2022-07-04T05:31:29;101166.59;;;31.85;31.31
71344;BME280;59146;43.850;25.948;2022-07-04T05:33:54;101174.06;;;31.90;31.06
71344;BME280;59146;43.850;25.948;2022-07-04T05:36:21;101163.13;;;31.65;31.33
71344;BME280;59146;43.850;25.948;2022-07-04T05:38:47;101161.13;;;31.48;30.61
71344;BME280;59146;43.850;25.948;2022-07-04T05:41:12;101203.47;;;31.60;30.57
71344;BME280;59146;43.850;25.948;2022-07-04T05:43:38;101170.72;;;31.30;32.09
71344;BME280;59146;43.850;25.948;2022-07-04T05:46:03;101197.41;;;31.71;30.93
71344;BME280;59146;43.850;25.948;2022-07-04T05:48:29;101153.69;;;31.87;29.15
71344;BME280;59146;43.850;25.948;2022-07-04T05:50:55;101200.94;;;32.16;30.14
71344;BME280;59146;43.850;25.948;2022-07-04T05:53:20;101214.03;;;32.57;29.80
71344;BME280;59146;43.850;25.948;2022-07-04T05:55:45;101184.16;;;32.07;30.76
71344;BME280;59146;43.850;25.948;2022-07-04T05:58:11;101152.44;;;31.96;31.19
71344;BME280;59146;43.850;25.948;2022-07-04T06:00:37;101213.94;;;31.94;31.67
71344;BME280;59146;43.850;25.948;2022-07-04T06:03:05;101213.69;;;32.09;31.02
71344;BME280;59146;43.850;25.948;2022-07-04T06:05:30;101211.66;;;31.91;30.47
71344;BME280;59146;43.850;25.948;2022-07-04T06:07:56;101206.41;;;31.52;30.59
71344;BME280;59146;43.850;25.948;2022-07-04T06:10:22;101190.06;;;31.85;30.42
71344;BME280;59146;43.850;25.948;2022-07-04T06:12:47;101155.22;;;31.70;29.83
71344;BME280;59146;43.850;25.948;2022-07-04T06:15:13;101127.06;;;31.97;28.83
71344;BME280;59146;43.850;25.948;2022-07-04T06:17:39;101180.47;;;32.33;29.52
71344;BME280;59146;43.850;25.948;2022-07-04T06:20:05;101209.28;;;32.46;30.24
71344;BME280;59146;43.850;25.948;2022-07-04T06:22:40;101199.34;;;32.46;30.09
71344;BME280;59146;43.850;25.948;2022-07-04T06:25:10;101149.59;;;32.16;30.27
71344;BME280;59146;43.850;25.948;2022-07-04T06:27:36;101151.13;;;32.37;29.84
71344;BME280;59146;43.850;25.948;2022-07-04T06:30:01;101159.75;;;32.21;29.42
71344;BME280;59146;43.850;25.948;2022-07-04T06:32:27;101179.97;;;32.43;29.31
71344;BME280;59146;43.850;25.948;2022-07-04T06:34:52;101187.31;;;32.67;29.04
71344;BME280;59146;43.850;25.948;2022-07-04T06:37:36;101155.91;;;32.66;28.38
71344;BME280;59146;43.850;25.948;2022-07-04T06:40:01;101165.44;;;32.93;25.49
71344;BME280;59146;43.850;25.948;2022-07-04T06:42:27;101162.00;;;32.86;25.83
71344;BME280;59146;43.850;25.948;2022-07-04T06:44:52;101116.09;;;32.24;26.88
71344;BME280;59146;43.850;25.948;2022-07-04T06:47:17;101142.34;;;32.41;26.59
71344;BME280;59146;43.850;25.948;2022-07-04T06:49:43;101186.41;;;32.98;26.60
71344;BME280;59146;43.850;25.948;2022-07-04T06:52:08;101186.25;;;32.68;27.02
71344;BME280;59146;43.850;25.948;2022-07-04T06:54:34;101171.38;;;32.59;26.98
71344;BME280;59146;43.850;25.948;2022-07-04T06:56:59;101137.31;;;32.51;27.65
71344;BME280;59146;43.850;25.948;2022-07-04T06:59:24;101115.25;;;32.23;28.37
71344;BME280;59146;43.850;25.948;2022-07-04T07:01:50;101128.84;;;31.72;29.56
71344;BME280;59146;43.850;25.948;2022-07-04T07:04:15;101105.81;;;31.63;28.26
71344;BME280;59146;43.850;25.948;2022-07-04T07:06:41;101172.97;;;32.35;28.29
71344;BME280;59146;43.850;25.948;2022-07-04T07:09:06;101138.38;;;32.44;27.82
71344;BME280;59146;43.850;25.948;2022-07-04T07:11:32;101133.56;;;32.52;26.59
71344;BME280;59146;43.850;25.948;2022-07-04T07:13:57;101119.22;;;32.45;27.24
71344;BME280;59146;43.850;25.948;2022-07-04T07:16:23;101146.72;;;32.49;26.62
71344;BME280;59146;43.850;25.948;2022-07-04T07:18:50;101185.41;;;32.74;27.33
71344;BME280;59146;43.850;25.948;2022-07-04T07:21:16;101177.75;;;32.89;29.05
71344;BME280;59146;43.850;25.948;2022-07-04T07:23:42;101174.38;;;33.00;29.99
71344;BME280;59146;43.850;25.948;2022-07-04T07:26:09;101143.59;;;32.95;29.11
71344;BME280;59146;43.850;25.948;2022-07-04T07:28:35;101125.69;;;32.94;27.60
71344;BME280;59146;43.850;25.948;2022-07-04T07:31:01;101162.16;;;33.52;28.00
71344;BME280;59146;43.850;25.948;2022-07-04T07:33:27;101104.25;;;33.17;29.19
71344;BME280;59146;43.850;25.948;2022-07-04T07:35:52;101135.47;;;33.55;30.21
71344;BME280;59146;43.850;25.948;2022-07-04T07:38:18;101165.72;;;34.30;28.85
71344;BME280;59146;43.850;25.948;2022-07-04T07:40:43;101147.25;;;34.09;26.38
71344;BME280;59146;43.850;25.948;2022-07-04T07:43:09;101153.75;;;34.08;26.52
71344;BME280;59146;43.850;25.948;2022-07-04T07:45:34;101164.66;;;35.07;25.41
71344;BME280;59146;43.850;25.948;2022-07-04T07:47:59;101127.13;;;35.15;25.53
71344;BME280;59146;43.850;25.948;2022-07-04T07:50:25;101132.28;;;35.29;26.37
71344;BME280;59146;43.850;25.948;2022-07-04T07:52:51;101160.53;;;35.16;24.57
71344;BME280;59146;43.850;25.948;2022-07-04T07:55:16;101149.63;;;35.39;24.15
71344;BME280;59146;43.850;25.948;2022-07-04T07:57:41;101120.00;;;35.38;23.52
71344;BME280;59146;43.850;25.948;2022-07-04T08:00:07;101165.13;;;35.27;26.01
71344;BME280;59146;43.850;25.948;2022-07-04T08:02:33;101147.63;;;35.35;25.60
71344;BME280;59146;43.850;25.948;2022-07-04T08:05:17;101120.88;;;34.57;25.18
71344;BME280;59146;43.850;25.948;2022-07-04T08:07:42;101156.03;;;34.64;25.03
71344;BME280;59146;43.850;25.948;2022-07-04T08:10:08;101157.66;;;34.53;27.45
71344;BME280;59146;43.850;25.948;2022-07-04T08:12:34;101170.00;;;34.08;28.48
71344;BME280;59146;43.850;25.948;2022-07-04T08:14:59;101133.97;;;33.89;26.43
71344;BME280;59146;43.850;25.948;2022-07-04T08:17:25;101093.44;;;33.83;26.62
71344;BME280;59146;43.850;25.948;2022-07-04T08:19:50;101144.38;;;34.33;26.25
71344;BME280;59146;43.850;25.948;2022-07-04T08:22:16;101158.72;;;34.75;25.57
71344;BME280;59146;43.850;25.948;2022-07-04T08:24:42;101115.13;;;34.35;24.77
71344;BME280;59146;43.850;25.948;2022-07-04T08:27:08;101156.72;;;34.82;26.29
71344;BME280;59146;43.850;25.948;2022-07-04T08:29:34;101142.56;;;34.80;25.99
71344;BME280;59146;43.850;25.948;2022-07-04T08:32:00;101124.78;;;35.07;26.77
71344;BME280;59146;43.850;25.948;2022-07-04T08:34:25;101118.38;;;35.13;26.24
71344;BME280;59146;43.850;25.948;2022-07-04T08:36:51;101126.78;;;35.12;25.23
71344;BME280;59146;43.850;25.948;2022-07-04T08:39:16;101153.28;;;35.45;25.51
71344;BME280;59146;43.850;25.948;2022-07-04T08:41:42;101101.41;;;35.06;25.50
71344;BME280;59146;43.850;25.948;2022-07-04T08:44:08;101150.00;;;34.96;26.53
71344;BME280;59146;43.850;25.948;2022-07-04T08:46:39;101130.41;;;34.94;25.43
71344;BME280;59146;43.850;25.948;2022-07-04T08:49:31;101137.31;;;35.08;24.50
71344;BME280;59146;43.850;25.948;2022-07-04T08:52:07;101140.81;;;35.21;25.22
71344;BME280;59146;43.850;25.948;2022-07-04T08:54:36;101141.31;;;35.69;22.83
71344;BME280;59146;43.850;25.948;2022-07-04T08:57:21;101147.06;;;35.72;23.34
71344;BME280;59146;43.850;25.948;2022-07-04T09:00:13;101140.59;;;36.02;21.83
71344;BME280;59146;43.850;25.948;2022-07-04T09:02:49;101139.75;;;36.01;22.49
71344;BME280;59146;43.850;25.948;2022-07-04T09:05:25;101116.44;;;36.05;21.58
71344;BME280;59146;43.850;25.948;2022-07-04T09:08:02;101134.47;;;36.39;21.97
71344;BME280;59146;43.850;25.948;2022-07-04T09:10:54;101110.22;;;36.21;21.53
71344;BME280;59146;43.850;25.948;2022-07-04T09:13:41;101133.78;;;36.32;22.12
71344;BME280;59146;43.850;25.948;2022-07-04T09:16:09;101131.94;;;35.76;23.04
71344;BME280;59146;43.850;25.948;2022-07-04T09:21:49;101127.88;;;35.62;23.17
71344;BME280;59146;43.850;25.948;2022-07-04T09:27:37;101130.84;;;36.34;21.93
71344;BME280;59146;43.850;25.948;2022-07-04T09:30:06;101126.00;;;36.52;22.93
71344;BME280;59146;43.850;25.948;2022-07-04T09:35:14;101127.47;;;36.43;22.86
71344;BME280;59146;43.850;25.948;2022-07-04T09:37:52;101079.06;;;36.12;22.46
71344;BME280;59146;43.850;25.948;2022-07-04T09:42:55;101118.22;;;36.78;22.76
71344;BME280;59146;43.850;25.948;2022-07-04T09:45:21;101113.66;;;36.61;22.91
71344;BME280;59146;43.850;25.948;2022-07-04T09:47:50;101131.28;;;36.76;22.04
71344;BME280;59146;43.850;25.948;2022-07-04T09:50:19;101124.06;;;36.86;21.70
71344;BME280;59146;43.850;25.948;2022-07-04T09:55:20;101052.78;;;36.18;21.95
71344;BME280;59146;43.850;25.948;2022-07-04T09:57:46;101108.66;;;36.25;22.33
71344;BME280;59146;43.850;25.948;2022-07-04T10:00:46;101060.28;;;36.11;22.35
71344;BME280;59146;43.850;25.948;2022-07-04T10:06:07;101097.38;;;36.17;22.88
71344;BME280;59146;43.850;25.948;2022-07-04T10:08:38;101082.16;;;35.87;23.71
71344;BME280;59146;43.850;25.948;2022-07-04T10:11:05;101099.56;;;36.03;23.70
71344;BME280;59146;43.850;25.948;2022-07-04T10:13:31;101012.09;;;35.61;23.40
71344;BME280;59146;43.850;25.948;2022-07-04T10:15:57;101036.03;;;35.48;25.64
71344;BME280;59146;43.850;25.948;2022-07-04T10:18:24;101084.25;;;35.69;23.67
71344;BME280;59146;43.850;25.948;2022-07-04T10:20:51;101071.75;;;35.84;23.95
71344;BME280;59146;43.850;25.948;2022-07-04T10:23:19;101066.28;;;35.68;24.39
71344;BME280;59146;43.850;25.948;2022-07-04T10:25:48;101070.13;;;35.83;24.17
71344;BME280;59146;43.850;25.948;2022-07-04T10:28:14;101087.75;;;36.26;23.38
71344;BME280;59146;43.850;25.948;2022-07-04T10:30:40;101042.47;;;36.03;23.94
71344;BME280;59146;43.850;25.948;2022-07-04T10:33:08;101042.00;;;36.06;22.34
71344;BME280;59146;43.850;25.948;2022-07-04T10:36:03;101082.53;;;36.24;23.45
71344;BME280;59146;43.850;25.948;2022-07-04T10:38:29;101096.72;;;36.43;23.12
71344;BME280;59146;43.850;25.948;2022-07-04T10:40:57;101083.38;;;36.41;23.21
71344;BME280;59146;43.850;25.948;2022-07-04T10:48:31;101056.47;;;36.12;23.36
71344;BME280;59146;43.850;25.948;2022-07-04T10:53:25;101064.72;;;36.17;23.00
71344;BME280;59146;43.850;25.948;2022-07-04T10:55:50;101057.47;;;36.06;23.39
71344;BME280;59146;43.850;25.948;2022-07-04T10:58:41;101067.63;;;36.27;24.09
71344;BME280;59146;43.850;25.948;2022-07-04T11:01:15;100940.31;;;35.74;22.80
71344;BME280;59146;43.850;25.948;2022-07-04T11:03:53;101000.72;;;36.09;23.00
71344;BME280;59146;43.850;25.948;2022-07-04T11:14:47;101042.38;;;36.64;23.48
71344;BME280;59146;43.850;25.948;2022-07-04T11:17:20;101011.00;;;36.40;22.53
71344;BME280;59146;43.850;25.948;2022-07-04T11:19:46;100984.13;;;36.27;23.25
71344;BME280;59146;43.850;25.948;2022-07-04T11:22:12;101024.69;;;36.29;23.20
71344;BME280;59146;43.850;25.948;2022-07-04T11:24:46;101001.06;;;35.96;22.75
71344;BME280;59146;43.850;25.948;2022-07-04T11:27:11;101029.66;;;36.15;23.20
71344;BME280;59146;43.850;25.948;2022-07-04T11:29:37;100980.19;;;36.02;22.68
71344;BME280;59146;43.850;25.948;2022-07-04T11:32:02;100974.16;;;35.83;23.96
71344;BME280;59146;43.850;25.948;2022-07-04T11:34:32;100967.31;;;35.80;23.36
71344;BME280;59146;43.850;25.948;2022-07-04T11:36:58;100986.75;;;35.72;23.81
71344;BME280;59146;43.850;25.948;2022-07-04T11:39:26;100975.13;;;35.60;24.20
71344;BME280;59146;43.850;25.948;2022-07-04T11:41:53;100935.69;;;35.30;24.46
71344;BME280;59146;43.850;25.948;2022-07-04T11:44:38;101002.91;;;35.79;23.79
71344;BME280;59146;43.850;25.948;2022-07-04T11:47:24;100998.63;;;35.83;25.46
71344;BME280;59146;43.850;25.948;2022-07-04T11:49:52;101005.97;;;35.99;25.12
71344;BME280;59146;43.850;25.948;2022-07-04T11:52:24;100992.03;;;35.79;25.32
71344;BME280;59146;43.850;25.948;2022-07-04T11:54:51;101000.44;;;35.77;23.94
71344;BME280;59146;43.850;25.948;2022-07-04T11:57:27;100965.00;;;35.56;24.91
71344;BME280;59146;43.850;25.948;2022-07-04T12:00:01;100993.28;;;35.71;23.98
71344;BME280;59146;43.850;25.948;2022-07-04T12:02:29;100986.00;;;35.60;24.73
71344;BME280;59146;43.850;25.948;2022-07-04T12:04:55;100948.66;;;35.39;25.03
71344;BME280;59146;43.850;25.948;2022-07-04T12:07:24;100988.72;;;35.60;25.14
71344;BME280;59146;43.850;25.948;2022-07-04T12:09:50;100957.00;;;35.21;25.49
71344;BME280;59146;43.850;25.948;2022-07-04T12:12:15;101002.09;;;35.22;24.63
71344;BME280;59146;43.850;25.948;2022-07-04T12:15:04;100958.78;;;34.76;25.46
71344;BME280;59146;43.850;25.948;2022-07-04T12:22:41;100995.91;;;34.98;25.03
71344;BME280;59146;43.850;25.948;2022-07-04T12:25:19;100960.56;;;34.70;25.15
71344;BME280;59146;43.850;25.948;2022-07-04T12:27:52;100981.16;;;35.06;24.77
71344;BME280;59146;43.850;25.948;2022-07-04T12:30:18;100976.25;;;35.20;24.48
71344;BME280;59146;43.850;25.948;2022-07-04T12:32:48;100966.31;;;35.25;24.55
71344;BME280;59146;43.850;25.948;2022-07-04T12:38:02;100994.16;;;35.77;25.24
71344;BME280;59146;43.850;25.948;2022-07-04T12:40:27;100991.59;;;35.99;24.65
71344;BME280;59146;43.850;25.948;2022-07-04T12:42:55;100983.31;;;36.10;23.82
71344;BME280;59146;43.850;25.948;2022-07-04T12:45:21;100948.56;;;35.79;24.36
71344;BME280;59146;43.850;25.948;2022-07-04T12:47:48;100954.03;;;35.67;23.74
71344;BME280;59146;43.850;25.948;2022-07-04T12:50:14;100923.78;;;35.31;24.75
71344;BME280;59146;43.850;25.948;2022-07-04T12:52:40;100931.53;;;35.39;25.02
71344;BME280;59146;43.850;25.948;2022-07-04T12:55:07;100974.84;;;35.90;25.27
71344;BME280;59146;43.850;25.948;2022-07-04T12:57:36;100934.97;;;35.79;25.96
71344;BME280;59146;43.850;25.948;2022-07-04T13:00:02;100968.84;;;36.05;25.08
71344;BME280;59146;43.850;25.948;2022-07-04T13:02:28;100970.25;;;36.07;24.21
71344;BME280;59146;43.850;25.948;2022-07-04T13:04:53;100936.88;;;35.95;24.53
71344;BME280;59146;43.850;25.948;2022-07-04T13:07:19;100923.19;;;36.07;24.14
71344;BME280;59146;43.850;25.948;2022-07-04T13:09:45;100974.81;;;36.40;23.19
71344;BME280;59146;43.850;25.948;2022-07-04T13:12:12;100970.81;;;36.09;24.64
71344;BME280;59146;43.850;25.948;2022-07-04T13:14:54;100968.66;;;36.28;25.42
71344;BME280;59146;43.850;25.948;2022-07-04T13:17:21;100901.78;;;35.60;24.41
71344;BME280;59146;43.850;25.948;2022-07-04T13:19:47;100916.41;;;35.76;23.75
71344;BME280;59146;43.850;25.948;2022-07-04T13:22:12;100954.16;;;35.72;24.53